Time;durP1;ratioP1;P1;durP2;ratioP2;P2;SDS_P1;SDS_P2;PMS_P1;PMS_P2;Temp;Humidity;BMP_temperature;BMP_pressure;BME280_temperature;BME280_humidity;BME280_pressure;Samples;Min_cycle;Max_cycle;Signal;HPM_P1;HPM_P2
2021/05/06 00:32:50;;;;;;;2.53;0.70;;;;;;;12.41;48.16;99511.47;4390228;32;33559;-83
2021/05/06 00:35:18;;;;;;;5.97;0.62;;;;;;;12.51;48.40;99510.03;4383105;32;33448;-83
2021/05/06 00:38:11;;;;;;;2.37;0.60;;;;;;;12.79;47.83;99514.63;4386144;32;32917;-84
2021/05/06 01:02:21;;;;;;;1.25;0.60;;;;;;;12.41;46.66;99567.09;4388214;32;32114;-83
2021/05/06 01:07:39;;;;;;;2.83;0.50;;;;;;;12.48;46.73;99562.28;4392413;32;33761;-83
2021/05/06 01:12:41;;;;;;;1.50;0.60;;;;;;;12.70;47.74;99572.56;4389028;32;34822;-83
2021/05/06 01:15:10;;;;;;;1.95;0.85;;;;;;;12.84;48.07;99570.00;4398069;32;33689;-83
2021/05/06 01:17:56;;;;;;;1.60;1.00;;;;;;;12.54;49.61;99567.28;4395175;32;32055;-83
2021/05/06 01:20:25;;;;;;;2.25;1.00;;;;;;;12.46;50.01;99567.69;4410963;32;33596;-83
2021/05/06 01:22:52;;;;;;;1.33;0.80;;;;;;;12.49;50.32;99564.88;4392964;32;34011;-83
2021/05/06 01:25:20;;;;;;;1.67;0.80;;;;;;;12.52;50.55;99564.69;4406460;32;33837;-82
2021/05/06 01:28:06;;;;;;;1.33;1.02;;;;;;;12.65;51.16;99569.31;4390082;32;34092;-84
2021/05/06 01:33:25;;;;;;;1.48;1.20;;;;;;;12.64;51.45;99575.56;4405462;32;34342;-83
2021/05/06 01:36:00;;;;;;;3.57;1.10;;;;;;;12.47;52.99;99577.34;4401607;32;33568;-83
2021/05/06 02:00:09;;;;;;;2.33;1.42;;;;;;;12.59;54.73;99620.84;4408038;32;33630;-84
2021/05/06 02:02:43;;;;;;;5.22;1.10;;;;;;;12.22;54.01;99636.06;4401140;32;33211;-84
2021/05/06 02:05:12;;;;;;;3.53;1.58;;;;;;;12.26;54.58;99634.13;4395979;32;35456;-83
2021/05/06 02:07:42;;;;;;;3.40;1.20;;;;;;;12.46;53.49;99628.59;4404251;32;33538;-83
2021/05/06 02:10:12;;;;;;;2.30;1.30;;;;;;;12.52;54.09;99625.59;4405586;32;33871;-83
2021/05/06 02:12:42;;;;;;;5.65;1.60;;;;;;;12.66;52.67;99624.84;4398758;32;33548;-83
2021/05/06 02:15:14;;;;;;;4.20;1.37;;;;;;;12.12;54.56;99628.69;4396317;32;35697;-83
2021/05/06 02:17:43;;;;;;;4.72;1.40;;;;;;;12.02;54.69;99629.19;4402594;32;33730;-82
2021/05/06 02:20:11;;;;;;;4.07;1.37;;;;;;;12.02;55.14;99623.88;4412513;32;33203;-83
2021/05/06 02:22:39;;;;;;;3.03;1.60;;;;;;;12.11;53.55;99619.91;4394679;32;33135;-82
2021/05/06 02:25:07;;;;;;;2.72;1.20;;;;;;;12.13;53.77;99618.00;4402001;32;33045;-83
2021/05/06 02:27:35;;;;;;;4.50;1.60;;;;;;;11.97;55.17;99625.06;4402247;32;33119;-82
2021/05/06 02:30:03;;;;;;;3.05;1.00;;;;;;;11.77;55.16;99618.09;4406820;32;33754;-83
2021/05/06 02:32:31;;;;;;;2.05;1.17;;;;;;;11.50;55.00;99621.25;4407169;32;34061;-83
2021/05/06 02:35:00;;;;;;;2.10;0.62;;;;;;;11.94;52.45;99619.94;4400673;32;34305;-82
2021/05/06 02:37:28;;;;;;;2.25;1.00;;;;;;;11.95;50.76;99626.91;4401582;32;33468;-82
2021/05/06 02:39:55;;;;;;;2.65;0.90;;;;;;;12.00;51.00;99601.91;4403030;32;33769;-83
2021/05/06 02:42:23;;;;;;;1.08;0.90;;;;;;;11.95;51.43;99611.91;4403584;32;32844;-83
2021/05/06 02:44:50;;;;;;;1.58;0.88;;;;;;;12.29;49.85;99610.94;4407032;32;35822;-83
2021/05/06 02:47:18;;;;;;;4.03;1.08;;;;;;;11.80;50.57;99618.81;4407914;32;34518;-83
2021/05/06 02:49:48;;;;;;;2.55;0.85;;;;;;;12.15;48.92;99608.19;4407055;32;33182;-83
2021/05/06 02:58:05;;;;;;;2.25;0.90;;;;;;;12.24;49.94;99618.28;4408735;32;35561;-83
2021/05/06 03:03:13;;;;;;;1.10;0.93;;;;;;;12.32;48.99;99617.03;4403240;32;33272;-83
2021/05/06 03:05:40;;;;;;;1.73;0.85;;;;;;;12.04;50.10;99626.44;4403007;32;33673;-83
2021/05/06 03:08:17;;;;;;;2.42;0.98;;;;;;;12.05;49.68;99626.34;4405661;32;35681;-83
2021/05/06 03:11:02;;;;;;;5.10;0.93;;;;;;;12.24;49.91;99639.47;4386497;32;34283;-83
2021/05/06 03:24:31;;;;;;;1.08;0.80;;;;;;;11.73;50.82;99670.34;4391807;32;35039;-82
2021/05/06 03:27:00;;;;;;;1.02;0.50;;;;;;;12.09;50.12;99676.47;4392240;32;33712;-83
2021/05/06 03:29:39;;;;;;;2.03;0.95;;;;;;;11.78;51.08;99696.56;4381623;32;33945;-83
2021/05/06 04:14:39;;;;;;;1.80;0.70;;;;;;;11.77;48.13;99745.97;4389688;32;34678;-84
2021/05/06 04:27:17;;;;;;;1.92;0.55;;;;;;;11.84;49.41;99761.56;4401700;32;34286;-84
2021/05/06 04:35:37;;;;;;;1.55;0.70;;;;;;;12.22;48.46;99780.81;4402960;32;33475;-84
2021/05/06 04:38:07;;;;;;;1.98;0.77;;;;;;;12.18;48.89;99788.03;4405442;32;32990;-84
2021/05/06 04:40:56;;;;;;;1.83;0.60;;;;;;;11.99;50.29;99792.53;4402098;32;32175;-84
2021/05/06 04:44:04;;;;;;;1.75;0.60;;;;;;;12.09;48.50;99787.63;4399052;32;35304;-84
2021/05/06 04:54:39;;;;;;;2.00;0.75;;;;;;;12.64;48.57;99771.59;4405485;32;32915;-83
2021/05/06 05:05:22;;;;;;;2.72;0.80;;;;;;;12.55;47.46;99771.13;4403483;32;32793;-82
2021/05/06 05:07:54;;;;;;;1.17;0.70;;;;;;;12.64;47.81;99783.03;4400142;32;33135;-83
2021/05/06 05:18:17;;;;;;;3.75;0.77;;;;;;;12.64;46.83;99795.44;4404448;32;34804;-83
2021/05/06 05:20:49;;;;;;;2.50;0.73;;;;;;;12.33;47.63;99794.34;4412918;32;34398;-83
2021/05/06 05:26:03;;;;;;;1.67;0.80;;;;;;;12.37;46.69;99787.97;4401000;32;35737;-83
2021/05/06 05:28:30;;;;;;;3.67;0.95;;;;;;;12.20;47.24;99790.59;4402562;32;33571;-83
2021/05/06 05:30:58;;;;;;;2.80;1.55;;;;;;;12.34;47.69;99798.69;4383207;32;35509;-84
2021/05/06 05:33:27;;;;;;;7.95;0.88;;;;;;;12.35;47.59;99805.72;4402702;32;33227;-83
2021/05/06 05:43:53;;;;;;;1.77;0.60;;;;;;;12.72;45.75;99819.69;4401437;32;33293;-83
2021/05/06 05:46:48;;;;;;;1.23;0.70;;;;;;;12.76;46.48;99815.97;4392085;32;32092;-83
2021/05/06 05:57:24;;;;;;;1.12;0.60;;;;;;;12.86;44.95;99805.72;4404216;32;34123;-88
2021/05/06 05:59:53;;;;;;;1.00;0.57;;;;;;;13.14;44.21;99813.91;4400749;32;33874;-86
2021/05/06 06:02:20;;;;;;;3.42;1.02;;;;;;;13.08;44.90;99814.25;4407902;32;33860;-87
2021/05/06 06:04:48;;;;;;;1.50;0.85;;;;;;;12.92;44.47;99822.19;4402187;32;34165;-86
2021/05/06 06:07:16;;;;;;;2.58;0.65;;;;;;;13.05;44.26;99817.94;4401987;32;33446;-86
2021/05/06 06:09:44;;;;;;;0.93;0.70;;;;;;;12.91;44.49;99819.59;4402671;32;35546;-87
2021/05/06 06:12:12;;;;;;;1.30;1.00;;;;;;;12.82;44.82;99820.97;4400171;32;33765;-86
2021/05/06 06:17:28;;;;;;;3.47;0.80;;;;;;;13.02;44.20;99826.06;4402563;32;33360;-86
2021/05/06 06:19:59;;;;;;;2.55;1.08;;;;;;;12.89;44.07;99817.03;4400978;32;34717;-86
2021/05/06 06:22:29;;;;;;;7.05;1.05;;;;;;;12.78;45.09;99830.00;4400264;32;32389;-86
2021/05/06 06:24:58;;;;;;;3.35;0.73;;;;;;;12.99;44.99;99830.66;4386993;32;32299;-86
2021/05/06 06:27:25;;;;;;;2.08;0.95;;;;;;;13.12;43.88;99828.22;4412188;32;34589;-86
2021/05/06 06:29:55;;;;;;;2.00;0.80;;;;;;;13.13;44.65;99820.16;4399199;32;34266;-86
2021/05/06 06:32:23;;;;;;;4.20;0.98;;;;;;;13.21;44.16;99823.28;4399830;32;33451;-86
2021/05/06 06:34:51;;;;;;;2.72;0.77;;;;;;;13.39;44.55;99821.44;4400640;32;33671;-86
2021/05/06 06:37:19;;;;;;;1.67;0.90;;;;;;;13.27;44.37;99814.16;4399871;32;31693;-87
2021/05/06 06:39:48;;;;;;;0.90;0.65;;;;;;;13.07;44.29;99816.06;4388652;32;35679;-89
2021/05/06 06:42:15;;;;;;;2.67;0.80;;;;;;;13.14;44.32;99816.56;4400788;32;33646;-89
2021/05/06 06:44:43;;;;;;;3.78;0.62;;;;;;;13.39;43.77;99821.44;4387020;32;35682;-90
2021/05/06 06:47:10;;;;;;;0.95;0.88;;;;;;;13.38;44.40;99821.50;4407526;32;34022;-88
2021/05/06 06:49:40;;;;;;;2.97;0.60;;;;;;;13.74;42.76;99810.66;4389338;32;34304;-89
2021/05/06 06:52:10;;;;;;;2.22;0.80;;;;;;;13.52;43.33;99806.53;4386430;32;35314;-88
2021/05/06 06:54:39;;;;;;;1.80;0.93;;;;;;;13.69;43.37;99802.09;4391965;32;32877;-88
2021/05/06 06:57:08;;;;;;;2.92;0.90;;;;;;;13.55;42.87;99809.03;4387397;32;34423;-89
2021/05/06 06:59:36;;;;;;;1.15;0.60;;;;;;;13.48;42.29;99805.03;4387908;32;34289;-88
2021/05/06 07:02:03;;;;;;;3.00;0.60;;;;;;;13.41;42.00;99814.25;4388819;32;32888;-88
2021/05/06 07:04:31;;;;;;;1.15;0.65;;;;;;;13.25;42.29;99811.59;4399707;32;32355;-88
2021/05/06 07:06:59;;;;;;;1.52;0.60;;;;;;;13.62;40.78;99798.06;4412383;32;34232;-88
2021/05/06 07:09:26;;;;;;;1.05;0.62;;;;;;;13.13;42.08;99806.06;4399926;32;33769;-88
2021/05/06 07:11:53;;;;;;;1.15;0.62;;;;;;;13.22;41.97;99810.91;4402461;32;35447;-88
2021/05/06 07:14:21;;;;;;;1.15;0.50;;;;;;;13.66;40.75;99810.22;4402075;32;32564;-88
2021/05/06 07:16:55;;;;;;;0.98;0.50;;;;;;;13.60;41.41;99810.59;4404928;32;33681;-89
2021/05/06 07:19:22;;;;;;;1.75;0.57;;;;;;;13.84;40.42;99811.84;4399891;32;35656;-88
2021/05/06 07:21:50;;;;;;;2.30;0.80;;;;;;;13.57;41.44;99808.94;4400295;32;34690;-89
2021/05/06 07:24:17;;;;;;;3.00;0.80;;;;;;;13.73;41.16;99814.25;4399060;32;36528;-89
2021/05/06 07:26:49;;;;;;;3.15;0.77;;;;;;;14.02;39.57;99816.09;4401611;32;31805;-88
2021/05/06 07:29:20;;;;;;;3.60;0.70;;;;;;;13.88;40.47;99824.00;4391274;32;33517;-88
2021/05/06 07:31:51;;;;;;;6.97;0.60;;;;;;;14.05;39.57;99825.69;4401675;32;33061;-88
2021/05/06 07:34:22;;;;;;;1.58;0.50;;;;;;;14.22;38.42;99830.03;4401128;32;33021;-89
2021/05/06 07:36:52;;;;;;;0.98;0.50;;;;;;;13.89;39.53;99820.41;4405540;32;34227;-88
2021/05/06 07:39:22;;;;;;;2.15;0.80;;;;;;;14.13;40.47;99817.28;4406427;32;34811;-87
2021/05/06 07:41:51;;;;;;;2.67;1.33;;;;;;;14.36;40.76;99819.44;4396246;32;33692;-88
2021/05/06 07:44:22;;;;;;;5.57;1.10;;;;;;;14.15;40.51;99818.91;4406493;32;33233;-88
2021/05/06 07:47:08;;;;;;;1.27;0.75;;;;;;;13.98;40.26;99817.22;4402736;32;34517;-88
2021/05/06 07:49:39;;;;;;;2.95;1.10;;;;;;;14.11;40.17;99821.84;4402550;32;36033;-88
2021/05/06 07:52:13;;;;;;;1.73;1.00;;;;;;;14.28;39.80;99827.84;4410559;32;33464;-88
2021/05/06 07:54:52;;;;;;;1.48;1.15;;;;;;;14.54;40.26;99831.69;4400841;32;34937;-88
2021/05/06 07:57:20;;;;;;;4.20;1.15;;;;;;;14.48;40.32;99826.75;4412745;32;33352;-88
2021/05/06 07:59:49;;;;;;;1.73;0.90;;;;;;;14.25;39.85;99832.50;4396117;32;34603;-88
2021/05/06 08:02:17;;;;;;;2.55;1.27;;;;;;;14.65;39.51;99833.69;4415909;32;33403;-88
2021/05/06 08:04:45;;;;;;;2.78;0.90;;;;;;;14.77;40.06;99826.78;4405997;32;33772;-88
2021/05/06 08:07:12;;;;;;;1.58;0.90;;;;;;;14.49;40.28;99841.72;4411770;32;35446;-88
2021/05/06 08:09:42;;;;;;;2.42;1.10;;;;;;;14.58;38.67;99827.91;4393189;32;33429;-88
2021/05/06 08:12:12;;;;;;;2.03;1.67;;;;;;;14.95;37.73;99830.97;4391953;32;33282;-88
2021/05/06 08:14:39;;;;;;;2.53;1.10;;;;;;;14.60;40.07;99833.13;4402277;32;33405;-88
2021/05/06 08:17:06;;;;;;;2.78;1.17;;;;;;;15.02;39.21;99829.66;4400700;32;35080;-88
2021/05/06 08:19:40;;;;;;;;;;;;;;;14.85;40.08;99835.13;4403462;32;35622;-88
2021/05/06 08:22:08;;;;;;;5.68;1.23;;;;;;;14.55;40.03;99836.03;4380353;32;34084;-89
2021/05/06 08:24:36;;;;;;;2.65;1.20;;;;;;;14.83;38.78;99840.56;4418556;32;31750;-88
2021/05/06 08:27:08;;;;;;;3.37;1.23;;;;;;;14.72;40.62;99834.19;4387347;32;35092;-88
2021/05/06 08:29:36;;;;;;;3.33;1.00;;;;;;;14.79;39.76;99831.06;4399450;32;34751;-88
2021/05/06 08:32:04;;;;;;;4.18;0.90;;;;;;;14.92;38.91;99825.84;4400712;32;33751;-88
2021/05/06 08:34:32;;;;;;;1.92;1.08;;;;;;;15.00;38.43;99828.91;4403093;32;33148;-88
2021/05/06 08:36:59;;;;;;;2.60;0.95;;;;;;;15.40;38.20;99821.09;4400098;32;33647;-88
2021/05/06 08:39:26;;;;;;;2.22;1.12;;;;;;;15.22;38.66;99819.59;4403264;32;34629;-88
2021/05/06 08:41:54;;;;;;;2.33;0.90;;;;;;;14.94;41.36;99828.41;4401082;32;35751;-88
2021/05/06 08:44:27;;;;;;;1.55;0.80;;;;;;;15.30;39.63;99822.62;4401314;32;33149;-88
2021/05/06 08:47:04;;;;;;;2.30;1.25;;;;;;;15.69;39.34;99813.09;4402258;32;31270;-88
2021/05/06 08:49:34;;;;;;;1.60;0.90;;;;;;;15.78;38.34;99809.84;4412496;32;33655;-88
2021/05/06 08:52:07;;;;;;;2.12;0.85;;;;;;;15.44;39.55;99814.62;4392989;32;33980;-88
2021/05/06 08:54:35;;;;;;;1.77;0.70;;;;;;;15.89;37.79;99809.97;4413585;32;34588;-88
2021/05/06 08:57:04;;;;;;;0.70;0.68;;;;;;;15.99;37.28;99805.75;4401221;32;33547;-88
2021/05/06 08:59:31;;;;;;;1.23;0.50;;;;;;;16.35;37.05;99810.44;4400347;32;33759;-88
2021/05/06 09:01:59;;;;;;;1.65;0.43;;;;;;;15.91;37.55;99808.09;4378301;32;34720;-88
2021/05/06 09:04:28;;;;;;;2.45;0.77;;;;;;;16.10;34.88;99808.56;4397236;32;34971;-88
2021/05/06 09:07:03;;;;;;;3.72;1.05;;;;;;;16.12;35.16;99814.62;4401394;32;34127;-88
2021/05/06 09:09:32;;;;;;;2.92;0.75;;;;;;;16.23;35.13;99810.41;4392688;32;33819;-88
2021/05/06 09:12:02;;;;;;;1.67;0.55;;;;;;;15.60;36.59;99814.50;4401326;32;33629;-89
2021/05/06 09:14:38;;;;;;;2.17;0.60;;;;;;;16.00;36.93;99812.81;4407811;32;32687;-89
2021/05/06 09:17:22;;;;;;;0.90;0.68;;;;;;;16.31;36.38;99822.25;4403836;32;34720;-89
2021/05/06 09:20:16;;;;;;;3.78;0.60;;;;;;;16.41;37.83;99813.66;4376203;32;36611;-89
2021/05/06 09:22:44;;;;;;;;;;;;;;;16.05;37.00;99805.38;4402466;32;33059;-88
2021/05/06 09:25:31;;;;;;;1.30;0.57;;;;;;;16.48;35.46;99813.16;4397232;32;33386;-92
2021/05/06 09:28:18;;;;;;;3.53;0.50;;;;;;;16.94;36.42;99815.31;4372250;32;34743;-90
2021/05/06 09:30:50;;;;;;;3.67;1.00;;;;;;;17.19;36.05;99810.97;4383396;32;35848;-90
2021/05/06 09:33:29;;;;;;;2.05;0.80;;;;;;;17.17;36.09;99815.53;4379779;32;34570;-92
2021/05/06 09:36:17;;;;;;;2.28;0.80;;;;;;;16.99;36.25;99823.84;4369008;32;34044;-92
2021/05/06 09:38:48;;;;;;;4.18;1.10;;;;;;;17.29;37.65;99814.66;4389554;32;34474;-92
2021/05/06 09:41:37;;;;;;;2.08;0.80;;;;;;;17.29;37.36;99820.00;4380105;32;35616;-92
2021/05/06 09:44:20;;;;;;;3.22;1.02;;;;;;;17.74;34.46;99818.53;4391984;32;35088;-91
2021/05/06 09:46:57;;;;;;;3.17;0.95;;;;;;;17.49;34.29;99827.44;4389769;32;34755;-92
2021/05/06 09:49:46;;;;;;;1.58;0.60;;;;;;;17.48;34.52;99825.72;4383792;32;35608;-92
2021/05/06 09:52:15;;;;;;;3.45;0.70;;;;;;;17.65;33.44;99816.50;4379585;32;34658;-92
2021/05/06 09:55:19;;;;;;;2.40;0.80;;;;;;;17.41;36.10;99819.97;4406217;32;35372;-90
2021/05/06 09:58:20;;;;;;;1.23;0.77;;;;;;;17.43;34.38;99817.22;4388477;32;33763;-88
2021/05/06 10:01:36;;;;;;;2.83;0.80;;;;;;;17.77;35.61;99820.13;4375983;32;34588;-90
2021/05/06 10:04:26;;;;;;;2.03;0.80;;;;;;;17.43;36.79;99832.38;4371976;32;34812;-87
2021/05/06 10:07:08;;;;;;;1.70;0.68;;;;;;;16.68;37.11;99840.25;4384513;32;34105;-88
2021/05/06 10:09:48;;;;;;;5.93;0.90;;;;;;;17.03;34.71;99845.84;4385833;32;33408;-87
2021/05/06 10:12:16;;;;;;;2.85;0.80;;;;;;;16.08;35.97;99847.75;4385350;32;32575;-87
2021/05/06 10:14:46;;;;;;;1.05;0.95;;;;;;;16.70;36.73;99846.31;4362513;32;34205;-87
2021/05/06 10:17:14;;;;;;;4.60;1.70;;;;;;;17.24;35.90;99838.16;4388896;32;34463;-91
2021/05/06 10:19:45;;;;;;;2.15;1.23;;;;;;;16.57;36.27;99841.84;4386535;32;34136;-92
2021/05/06 10:22:15;;;;;;;3.65;1.00;;;;;;;16.23;36.32;99835.22;4387097;32;34862;-89
2021/05/06 10:24:44;;;;;;;1.17;0.90;;;;;;;16.14;37.69;99830.50;4388553;32;35099;-91
2021/05/06 10:27:15;;;;;;;5.05;1.05;;;;;;;16.05;38.15;99832.00;4389653;32;33459;-91
2021/05/06 10:29:44;;;;;;;2.62;1.27;;;;;;;16.83;38.36;99823.22;4387224;32;31376;-90
2021/05/06 10:32:32;;;;;;;3.15;1.42;;;;;;;16.86;35.46;99823.88;4373771;32;33570;-89
2021/05/06 10:35:08;;;;;;;3.65;1.05;;;;;;;16.39;35.92;99816.44;4385403;32;35552;-91
2021/05/06 10:37:42;;;;;;;1.70;1.35;;;;;;;16.49;36.92;99817.50;4378078;32;35102;-91
2021/05/06 10:40:22;;;;;;;1.23;1.00;;;;;;;16.93;37.10;99802.94;4385197;32;33369;-91
2021/05/06 10:42:52;;;;;;;1.58;0.82;;;;;;;17.14;36.33;99805.94;4374345;32;34576;-90
2021/05/06 10:45:22;;;;;;;1.37;0.70;;;;;;;17.39;35.60;99805.88;4384954;32;34591;-89
2021/05/06 10:47:51;;;;;;;2.70;1.12;;;;;;;17.19;35.72;99808.28;4387396;32;32457;-88
2021/05/06 10:50:22;;;;;;;1.15;0.73;;;;;;;17.54;34.60;99808.41;4376565;32;33941;-88
2021/05/06 10:52:54;;;;;;;4.10;1.58;;;;;;;16.73;35.63;99811.50;4383115;32;35225;-88
2021/05/06 10:56:06;;;;;;;4.40;1.05;;;;;;;17.23;35.61;99807.09;4384077;32;33775;-88
2021/05/06 10:58:35;;;;;;;2.12;1.05;;;;;;;17.14;35.55;99800.59;4382362;32;33881;-88
2021/05/06 11:01:02;;;;;;;2.22;0.77;;;;;;;17.13;35.23;99809.53;4384106;32;33448;-86
2021/05/06 11:03:33;;;;;;;1.25;0.60;;;;;;;17.05;36.66;99807.44;4384622;32;34798;-89
2021/05/06 11:06:07;;;;;;;2.00;0.90;;;;;;;17.31;36.00;99815.41;4374586;32;34701;-88
2021/05/06 11:08:35;;;;;;;2.33;0.60;;;;;;;17.50;36.28;99805.09;4383430;32;33691;-88
2021/05/06 11:11:07;;;;;;;0.47;0.47;;;;;;;17.90;35.94;99803.09;4385488;32;33142;-89
2021/05/06 11:14:06;;;;;;;2.05;0.50;;;;;;;17.94;35.42;99806.38;4388499;32;32291;-88
2021/05/06 11:16:35;;;;;;;3.08;0.68;;;;;;;18.16;34.53;99817.16;4383272;32;33783;-88
2021/05/06 11:19:03;;;;;;;1.50;1.10;;;;;;;17.63;35.57;99824.63;4388824;32;33863;-88
2021/05/06 11:21:31;;;;;;;3.15;0.60;;;;;;;17.04;34.97;99828.88;4370215;32;33791;-88
2021/05/06 11:24:17;;;;;;;1.30;0.73;;;;;;;17.72;34.81;99811.56;4375454;32;35572;-88
2021/05/06 11:27:07;;;;;;;1.35;0.68;;;;;;;17.48;35.45;99809.72;4384304;32;33529;-88
2021/05/06 11:29:37;;;;;;;2.03;0.70;;;;;;;17.27;35.68;99812.09;4388464;32;33104;-88
2021/05/06 11:32:26;;;;;;;3.25;0.90;;;;;;;17.70;35.35;99802.81;4386132;32;33691;-88
2021/05/06 11:34:54;;;;;;;1.37;0.70;;;;;;;17.48;36.36;99788.37;4381308;32;32541;-88
2021/05/06 11:37:27;;;;;;;4.03;1.02;;;;;;;17.09;36.33;99808.06;4386682;32;33521;-88
2021/05/06 11:40:06;;;;;;;2.80;1.05;;;;;;;16.91;37.04;99804.88;4388232;32;33776;-88
2021/05/06 11:42:39;;;;;;;1.35;0.80;;;;;;;16.99;35.28;99797.19;4383165;32;35447;-88
2021/05/06 11:45:08;;;;;;;2.70;0.80;;;;;;;17.43;37.90;99790.50;4359215;32;33378;-88
2021/05/06 11:47:35;;;;;;;1.98;0.77;;;;;;;17.26;36.34;99796.19;4355714;32;34715;-88
2021/05/06 11:50:19;;;;;;;2.53;0.85;;;;;;;17.47;36.36;99796.47;4380686;32;34280;-88
2021/05/06 11:52:47;;;;;;;2.22;0.70;;;;;;;17.79;35.63;99778.13;4374793;32;33548;-87
2021/05/06 11:55:31;;;;;;;2.17;1.20;;;;;;;16.81;37.82;99786.00;4376528;32;32191;-88
2021/05/06 11:57:59;;;;;;;1.58;1.15;;;;;;;16.79;40.16;99779.06;4380056;32;33937;-88
2021/05/06 12:00:29;;;;;;;2.65;1.00;;;;;;;17.31;39.21;99770.03;4357158;32;34623;-88
2021/05/06 12:03:06;;;;;;;6.03;1.42;;;;;;;17.80;40.36;99771.81;4357870;32;32869;-88
2021/05/06 12:05:51;;;;;;;2.58;1.27;;;;;;;17.48;39.76;99769.69;4361859;32;32595;-88
2021/05/06 12:08:20;;;;;;;2.17;1.20;;;;;;;17.08;39.59;99769.00;4367796;32;33430;-87
2021/05/06 12:10:48;;;;;;;2.17;1.30;;;;;;;16.83;38.32;99777.91;4371758;32;33494;-88
2021/05/06 12:13:17;;;;;;;1.33;1.17;;;;;;;16.78;38.55;99778.22;4354572;32;33107;-87
2021/05/06 12:15:45;;;;;;;3.30;0.90;;;;;;;16.68;39.51;99770.94;4370340;32;33610;-88
2021/05/06 12:18:22;;;;;;;1.52;1.27;;;;;;;17.11;39.92;99772.31;4349523;32;33503;-87
2021/05/06 12:20:52;;;;;;;5.80;1.30;;;;;;;16.65;39.95;99783.50;4358457;32;34424;-87
2021/05/06 12:23:21;;;;;;;3.33;1.33;;;;;;;16.22;41.31;99792.72;4349112;32;32833;-87
2021/05/06 12:25:49;;;;;;;1.95;1.08;;;;;;;16.18;42.82;99789.41;4342894;32;34617;-87
2021/05/06 12:28:17;;;;;;;1.87;0.85;;;;;;;16.50;41.64;99783.72;4368035;32;33139;-87
2021/05/06 12:30:45;;;;;;;1.60;1.00;;;;;;;16.13;40.72;99781.72;4346066;32;34260;-87
2021/05/06 12:33:12;;;;;;;3.97;1.17;;;;;;;16.14;41.11;99774.56;4354257;32;35892;-86
2021/05/06 12:35:51;;;;;;;2.87;1.33;;;;;;;16.62;41.48;99770.41;4336684;32;34078;-88
2021/05/06 12:38:29;;;;;;;4.22;1.17;;;;;;;16.52;39.80;99761.34;4366114;32;34976;-87
2021/05/06 12:41:04;;;;;;;2.47;0.98;;;;;;;16.45;39.87;99769.84;4382350;32;33524;-87
2021/05/06 12:43:34;;;;;;;1.77;1.30;;;;;;;16.29;41.14;99764.72;4368545;32;35283;-87
2021/05/06 12:46:03;;;;;;;2.97;1.33;;;;;;;17.09;40.32;99749.37;4344941;32;32691;-88
2021/05/06 12:48:38;;;;;;;1.73;1.12;;;;;;;17.11;39.31;99764.31;4360729;32;34708;-87
2021/05/06 12:51:07;;;;;;;5.50;1.58;;;;;;;16.56;39.47;99757.47;4380728;32;32790;-86
2021/05/06 12:53:34;;;;;;;3.17;1.27;;;;;;;16.58;40.02;99755.56;4360574;32;33764;-88
2021/05/06 12:56:03;;;;;;;3.80;1.40;;;;;;;16.53;40.01;99747.03;4362460;32;34904;-87
2021/05/06 12:58:32;;;;;;;3.28;1.48;;;;;;;16.47;40.63;99741.25;4382333;32;33081;-87
2021/05/06 13:01:00;;;;;;;4.35;1.12;;;;;;;17.01;38.41;99747.25;4355876;32;32721;-87
2021/05/06 13:03:28;;;;;;;2.37;1.83;;;;;;;16.33;40.49;99755.53;4388392;32;31297;-88
2021/05/06 13:06:02;;;;;;;1.48;1.23;;;;;;;16.09;40.85;99755.38;4367725;32;34142;-87
2021/05/06 13:08:35;;;;;;;3.53;1.10;;;;;;;16.44;37.60;99742.34;4388097;32;31721;-87
2021/05/06 13:11:04;;;;;;;1.30;0.88;;;;;;;17.09;37.96;99741.34;4385006;32;32943;-88
2021/05/06 13:13:52;;;;;;;2.70;1.20;;;;;;;17.29;38.09;99732.78;4388676;32;33698;-87
2021/05/06 13:16:36;;;;;;;2.10;1.27;;;;;;;16.93;37.86;99728.28;4389103;32;34623;-87
2021/05/06 13:19:06;;;;;;;2.50;0.85;;;;;;;16.88;36.27;99722.41;4387433;32;33170;-87
2021/05/06 13:21:34;;;;;;;9.13;1.50;;;;;;;17.04;37.85;99714.16;4383295;32;33979;-87
2021/05/06 13:24:04;;;;;;;5.97;1.42;;;;;;;16.93;36.99;99717.59;4386233;32;33789;-87
2021/05/06 13:26:42;;;;;;;2.28;1.17;;;;;;;17.71;36.25;99713.72;4391193;32;33494;-87
2021/05/06 13:29:16;;;;;;;4.35;1.08;;;;;;;17.01;36.72;99719.75;4387561;32;33887;-90
2021/05/06 13:31:45;;;;;;;1.40;0.82;;;;;;;16.98;36.88;99725.28;4381872;32;34335;-90
2021/05/06 13:34:19;;;;;;;1.15;1.05;;;;;;;17.54;36.98;99712.31;4392408;32;33770;-89
2021/05/06 13:37:02;;;;;;;3.28;1.20;;;;;;;18.10;36.94;99707.22;4375478;32;34277;-90
2021/05/06 13:39:39;;;;;;;2.50;1.00;;;;;;;17.33;37.04;99704.06;4369159;32;34914;-89
2021/05/06 13:42:06;;;;;;;0.90;0.80;;;;;;;17.87;36.23;99701.81;4377088;32;33553;-90
2021/05/06 13:44:35;;;;;;;3.53;1.30;;;;;;;16.76;36.10;99688.59;4376961;32;32112;-89
2021/05/06 13:47:06;;;;;;;5.40;1.00;;;;;;;16.88;36.90;99701.09;4375760;32;34362;-89
2021/05/06 13:49:34;;;;;;;2.65;0.90;;;;;;;17.06;36.56;99691.75;4362345;32;33499;-89
2021/05/06 13:52:04;;;;;;;2.15;1.10;;;;;;;16.58;38.73;99691.59;4380813;32;33778;-89
2021/05/06 13:54:32;;;;;;;5.18;1.40;;;;;;;17.23;36.74;99687.00;4384877;32;31547;-89
2021/05/06 13:56:59;;;;;;;3.12;1.10;;;;;;;17.24;35.15;99694.06;4385486;32;33042;-89
2021/05/06 13:59:27;;;;;;;3.12;1.00;;;;;;;17.49;36.62;99691.28;4386827;32;32732;-89
2021/05/06 14:01:56;;;;;;;2.28;0.88;;;;;;;17.28;33.67;99690.19;4363436;32;33206;-90
2021/05/06 14:04:24;;;;;;;1.62;0.90;;;;;;;17.22;34.75;99702.16;4367216;32;33091;-89
2021/05/06 14:06:52;;;;;;;4.57;0.90;;;;;;;17.39;34.05;99706.28;4361311;32;35754;-90
2021/05/06 14:09:20;;;;;;;1.27;0.80;;;;;;;17.05;34.78;99703.41;4388268;32;34565;-89
2021/05/06 14:11:49;;;;;;;5.45;1.30;;;;;;;17.45;35.03;99696.97;4376066;32;34975;-89
2021/05/06 14:14:16;;;;;;;1.73;0.82;;;;;;;16.73;36.39;99688.84;4374623;32;36872;-89
2021/05/06 14:16:44;;;;;;;4.03;1.25;;;;;;;16.72;35.84;99681.81;4377319;32;33485;-89
2021/05/06 14:19:13;;;;;;;4.85;1.10;;;;;;;16.69;36.84;99679.31;4394368;32;34750;-88
2021/05/06 14:21:42;;;;;;;2.17;1.10;;;;;;;17.12;36.02;99677.97;4389208;32;35854;-89
2021/05/06 14:24:11;;;;;;;1.30;0.65;;;;;;;17.41;34.18;99675.84;4376633;32;34269;-89
2021/05/06 14:26:39;;;;;;;1.25;0.55;;;;;;;17.53;32.90;99667.91;4391346;32;33306;-88
2021/05/06 14:29:06;;;;;;;1.10;0.70;;;;;;;17.75;33.49;99661.81;4389863;32;34458;-88
2021/05/06 14:31:34;;;;;;;3.03;0.80;;;;;;;17.36;32.51;99661.12;4393474;32;34305;-89
2021/05/06 14:34:01;;;;;;;1.67;0.90;;;;;;;16.90;32.51;99659.13;4392335;32;34623;-89
2021/05/06 14:36:29;;;;;;;1.65;0.90;;;;;;;17.41;33.12;99656.31;4392770;32;33578;-89
2021/05/06 14:39:00;;;;;;;3.72;0.50;;;;;;;16.99;33.90;99657.63;4389628;32;33732;-90
2021/05/06 14:41:29;;;;;;;1.50;0.68;;;;;;;17.18;33.06;99651.81;4391654;32;34261;-89
2021/05/06 14:43:57;;;;;;;0.70;0.70;;;;;;;16.96;33.85;99645.38;4375850;32;31636;-89
2021/05/06 14:46:24;;;;;;;2.33;0.80;;;;;;;16.91;33.69;99650.19;4387661;32;34101;-89
2021/05/06 14:48:52;;;;;;;1.55;0.62;;;;;;;16.69;34.77;99648.19;4389712;32;33513;-89
2021/05/06 14:51:20;;;;;;;2.08;0.77;;;;;;;16.57;34.54;99649.06;4386311;32;36834;-89
2021/05/06 14:53:48;;;;;;;1.85;1.00;;;;;;;16.99;33.70;99633.63;4386632;32;34203;-88
2021/05/06 14:56:16;;;;;;;2.47;1.02;;;;;;;16.62;33.73;99637.13;4386403;32;34119;-89
2021/05/06 14:58:43;;;;;;;3.12;1.48;;;;;;;16.49;33.62;99630.94;4386881;32;34216;-89
2021/05/06 15:01:10;;;;;;;4.93;1.02;;;;;;;16.15;34.21;99631.62;4388332;32;34058;-89
2021/05/06 15:03:38;;;;;;;2.42;0.90;;;;;;;16.33;34.26;99632.97;4389580;32;34804;-89
2021/05/06 15:06:06;;;;;;;3.17;0.77;;;;;;;16.69;33.02;99623.34;4391874;32;33574;-88
2021/05/06 15:08:33;;;;;;;1.83;0.77;;;;;;;16.62;33.16;99618.44;4387746;32;33707;-89
2021/05/06 15:11:01;;;;;;;3.45;1.00;;;;;;;16.55;33.57;99622.50;4385474;32;34489;-90
2021/05/06 15:13:28;;;;;;;1.85;1.00;;;;;;;16.71;33.05;99616.06;4385603;32;33630;-89
2021/05/06 15:15:56;;;;;;;2.97;1.10;;;;;;;16.53;35.13;99612.94;4381241;32;33428;-89
2021/05/06 15:18:23;;;;;;;2.35;0.80;;;;;;;16.53;34.73;99605.78;4372893;32;34449;-89
2021/05/06 15:20:51;;;;;;;2.08;0.90;;;;;;;16.60;34.71;99596.37;4382102;32;33447;-89
2021/05/06 15:23:18;;;;;;;3.20;0.95;;;;;;;17.34;33.71;99599.03;4371796;32;33643;-90